createdAt,value
2022-12-05T00:02:10.488Z,4.1
2022-12-05T00:04:35.598Z,4.1
2022-12-05T00:07:00.773Z,4.1
2022-12-05T00:09:25.885Z,4.1
2022-12-05T00:11:50.976Z,4.1
2022-12-05T00:14:16.092Z,4.1
2022-12-05T00:16:41.198Z,4.1
2022-12-05T00:19:06.320Z,4.1
2022-12-05T00:21:32.405Z,4.1
2022-12-05T00:23:57.524Z,4
2022-12-05T00:26:22.645Z,4
2022-12-05T00:28:48.734Z,4
2022-12-05T00:31:14.823Z,4
2022-12-05T00:33:40.928Z,4
2022-12-05T00:36:07.032Z,4
2022-12-05T00:38:33.125Z,4
2022-12-05T00:40:59.221Z,4
2022-12-05T00:43:25.345Z,4
2022-12-05T00:45:51.407Z,4
2022-12-05T00:48:17.514Z,4
2022-12-05T00:50:43.611Z,4
2022-12-05T00:53:09.700Z,4
2022-12-05T00:55:35.802Z,4
2022-12-05T00:58:01.881Z,4
2022-12-05T01:00:27.007Z,4
2022-12-05T01:02:53.103Z,4
2022-12-05T01:05:19.183Z,4
2022-12-05T01:07:45.284Z,4
2022-12-05T01:10:11.382Z,4.1
2022-12-05T01:12:37.478Z,4.1
2022-12-05T01:15:02.598Z,4.1
2022-12-05T01:17:27.716Z,4.1
2022-12-05T01:19:52.828Z,4.1
2022-12-05T01:22:17.953Z,4.1
2022-12-05T01:24:44.034Z,4.1
2022-12-05T01:27:10.137Z,4.1
2022-12-05T01:29:36.235Z,4.1
2022-12-05T01:32:02.340Z,4.1
2022-12-05T01:34:28.421Z,4.1
2022-12-05T01:36:54.525Z,4.1
2022-12-05T01:39:20.617Z,4.1
2022-12-05T01:41:46.726Z,4.1
2022-12-05T01:44:11.847Z,4.1
2022-12-05T01:46:37.931Z,4.1
2022-12-05T01:49:04.035Z,4.1
2022-12-05T01:51:30.116Z,4.1
2022-12-05T01:53:56.249Z,4.1
2022-12-05T01:56:22.322Z,4.1
2022-12-05T01:58:48.408Z,4.1
2022-12-05T02:01:14.507Z,4.1
2022-12-05T02:03:40.602Z,4.1
2022-12-05T02:06:06.704Z,4.1
2022-12-05T02:08:32.804Z,4.1
2022-12-05T02:10:58.885Z,4.1
2022-12-05T02:13:24.999Z,4.1
2022-12-05T02:15:51.098Z,4.1
2022-12-05T02:18:17.191Z,4.1
2022-12-05T02:20:43.284Z,4.1
2022-12-05T02:23:09.366Z,4.1
2022-12-05T02:25:35.460Z,4.1
2022-12-05T02:28:01.574Z,4.1
2022-12-05T02:30:27.661Z,4.1
2022-12-05T02:32:53.755Z,4.1
2022-12-05T02:35:19.862Z,4
2022-12-05T02:37:44.973Z,4
2022-12-05T02:40:11.079Z,4
2022-12-05T02:42:37.157Z,4
2022-12-05T02:45:02.283Z,4
2022-12-05T02:47:28.382Z,4
2022-12-05T02:49:54.484Z,4
2022-12-05T02:52:20.596Z,4
2022-12-05T02:54:46.665Z,4
2022-12-05T02:57:12.750Z,4
2022-12-05T02:59:38.856Z,4
2022-12-05T03:02:04.955Z,4
2022-12-05T03:04:31.048Z,4
2022-12-05T03:06:57.140Z,4
2022-12-05T03:09:23.232Z,4
2022-12-05T03:11:49.336Z,4
2022-12-05T03:14:15.451Z,4
2022-12-05T03:16:41.533Z,4
2022-12-05T03:19:07.628Z,4
2022-12-05T03:21:33.711Z,4
2022-12-05T03:23:59.823Z,3.9
2022-12-05T03:26:25.948Z,3.9
2022-12-05T03:28:52.009Z,3.9
2022-12-05T03:31:18.107Z,3.8
2022-12-05T03:33:44.208Z,3.8
2022-12-05T03:36:09.336Z,3.8
2022-12-05T03:38:34.440Z,3.8
2022-12-05T03:41:00.530Z,3.8
2022-12-05T03:43:26.638Z,3.8
2022-12-05T03:45:52.731Z,3.8
2022-12-05T03:48:18.829Z,3.9
2022-12-05T03:50:44.929Z,3.8
2022-12-05T03:53:11.011Z,3.9
2022-12-05T03:55:37.118Z,3.9
2022-12-05T03:58:03.210Z,3.9
2022-12-05T04:00:29.307Z,3.9
2022-12-05T04:02:55.397Z,3.9
2022-12-05T04:05:21.487Z,3.9
2022-12-05T04:07:47.595Z,3.9
2022-12-05T04:10:12.699Z,3.9
2022-12-05T04:12:38.794Z,4
2022-12-05T04:15:04.886Z,4
2022-12-05T04:17:30.985Z,4
2022-12-05T04:19:57.114Z,4
2022-12-05T04:22:23.190Z,4
2022-12-05T04:24:49.286Z,4
2022-12-05T04:27:14.400Z,4
2022-12-05T04:29:39.507Z,4
2022-12-05T04:32:04.634Z,4
2022-12-05T04:34:29.750Z,4
2022-12-05T04:36:54.877Z,4.1
2022-12-05T04:39:19.969Z,4.1
2022-12-05T04:41:46.079Z,4.1
2022-12-05T04:44:11.198Z,4.1
2022-12-05T04:46:36.319Z,4.1
2022-12-05T04:49:02.410Z,4.1
2022-12-05T04:51:28.494Z,4.1
2022-12-05T04:53:54.599Z,4.1
2022-12-05T04:56:20.708Z,4.1
2022-12-05T04:58:46.797Z,4.1
2022-12-05T05:01:12.919Z,4.1
2022-12-05T05:03:38.980Z,4.1
2022-12-05T05:06:05.085Z,4.1
2022-12-05T05:08:31.176Z,4.2
2022-12-05T05:10:57.269Z,4.2
2022-12-05T05:13:23.438Z,4.2
2022-12-05T05:15:49.467Z,4.2
2022-12-05T05:18:14.568Z,4.2
2022-12-05T05:20:40.675Z,4.2
2022-12-05T05:23:06.939Z,4.2
2022-12-05T05:25:32.851Z,4.2
2022-12-05T05:27:58.966Z,4.2
2022-12-05T05:30:25.060Z,4.2
2022-12-05T05:32:51.147Z,4.2
2022-12-05T05:35:16.260Z,4.2
2022-12-05T05:37:41.384Z,4.2
2022-12-05T05:40:06.511Z,4.2
2022-12-05T05:42:31.615Z,4.2
2022-12-05T05:44:57.712Z,4.2
2022-12-05T05:47:23.802Z,4.3
2022-12-05T05:49:49.930Z,4.3
2022-12-05T05:52:16.005Z,4.3
2022-12-05T05:54:42.100Z,4.3
2022-12-05T05:57:08.187Z,4.3
2022-12-05T05:59:34.277Z,4.3
2022-12-05T06:02:00.379Z,4.3
2022-12-05T06:04:26.471Z,4.3
2022-12-05T06:06:52.569Z,4.3
2022-12-05T06:09:18.819Z,4.3
2022-12-05T06:11:44.764Z,4.3
2022-12-05T06:14:09.874Z,4.3
2022-12-05T06:16:35.973Z,4.3
2022-12-05T06:19:02.076Z,4.3
2022-12-05T06:21:28.152Z,4.3
2022-12-05T06:23:54.266Z,4.3
2022-12-05T06:26:20.367Z,4.3
2022-12-05T06:28:46.452Z,4.3
2022-12-05T06:31:12.576Z,4.3
2022-12-05T06:33:38.659Z,4.3
2022-12-05T06:36:04.729Z,4.4
2022-12-05T06:38:30.838Z,4.4
2022-12-05T06:40:56.930Z,4.4
2022-12-05T06:43:23.033Z,4.4
2022-12-05T06:45:49.126Z,4.4
2022-12-05T06:48:15.216Z,4.4
2022-12-05T06:50:41.312Z,4.4
2022-12-05T06:53:07.409Z,4.4
2022-12-05T06:55:32.538Z,4.4
2022-12-05T06:57:58.642Z,4.4
2022-12-05T07:00:24.737Z,4.4
2022-12-05T07:02:50.831Z,4.4
2022-12-05T07:05:16.020Z,4.4
2022-12-05T07:07:41.081Z,4.4
2022-12-05T07:10:07.156Z,4.4
2022-12-05T07:12:33.258Z,4.4
2022-12-05T07:14:59.374Z,4.4
2022-12-05T07:17:25.435Z,4.4
2022-12-05T07:19:51.645Z,4.4
2022-12-05T07:22:17.657Z,4.5
2022-12-05T07:24:43.730Z,4.5
2022-12-05T07:27:09.868Z,4.5
2022-12-05T07:29:35.925Z,4.5
2022-12-05T07:32:02.024Z,4.5
2022-12-05T07:34:28.107Z,4.5
2022-12-05T07:36:54.207Z,4.5
2022-12-05T07:39:19.323Z,4.6
2022-12-05T07:41:45.473Z,4.6
2022-12-05T07:44:11.508Z,4.6
2022-12-05T07:46:37.629Z,4.6
2022-12-05T07:49:03.727Z,4.6
2022-12-05T07:51:29.824Z,4.7
2022-12-05T07:53:55.930Z,4.7
2022-12-05T07:56:21.018Z,4.7
2022-12-05T07:58:47.127Z,4.7
2022-12-05T08:01:12.231Z,4.8
2022-12-05T08:03:38.338Z,4.8
2022-12-05T08:06:04.423Z,4.8
2022-12-05T08:08:30.559Z,4.8
2022-12-05T08:10:56.624Z,4.8
2022-12-05T08:13:22.717Z,4.9
2022-12-05T08:15:48.812Z,4.9
2022-12-05T08:18:14.905Z,5
2022-12-05T08:20:41.006Z,5.1
2022-12-05T08:23:07.105Z,5.1
2022-12-05T08:25:33.204Z,5.2
2022-12-05T08:27:59.281Z,5.2
2022-12-05T08:30:25.400Z,5.3
2022-12-05T08:32:51.502Z,5.3
2022-12-05T08:35:17.580Z,5.3
2022-12-05T08:37:42.691Z,5.4
2022-12-05T08:40:08.788Z,5.4
2022-12-05T08:42:34.912Z,5.4
2022-12-05T08:45:00.990Z,5.4
2022-12-05T08:47:26.097Z,5.5
2022-12-05T08:49:51.205Z,5.5
2022-12-05T08:52:16.327Z,5.6
2022-12-05T08:54:41.513Z,5.7
2022-12-05T08:57:07.530Z,5.8
2022-12-05T08:59:33.641Z,5.8
2022-12-05T09:01:59.735Z,5.9
2022-12-05T09:04:25.862Z,5.9
2022-12-05T09:06:51.955Z,5.9
2022-12-05T09:09:18.019Z,6
2022-12-05T09:11:44.122Z,6
2022-12-05T09:14:10.216Z,6
2022-12-05T09:16:36.302Z,6
2022-12-05T09:19:02.395Z,6
2022-12-05T09:21:28.485Z,6.1
2022-12-05T09:23:54.589Z,6.1
2022-12-05T09:26:19.693Z,6.1
2022-12-05T09:28:45.804Z,6.1
2022-12-05T09:31:11.884Z,6.2
2022-12-05T09:33:37.992Z,6.2
2022-12-05T09:36:04.093Z,6.3
2022-12-05T09:38:30.210Z,6.3
2022-12-05T09:40:56.290Z,6.3
2022-12-05T09:43:22.376Z,6.4
2022-12-05T09:45:48.468Z,6.4
2022-12-05T09:48:14.666Z,6.4
2022-12-05T09:50:39.789Z,6.4
2022-12-05T09:53:04.812Z,6.4
2022-12-05T09:55:29.938Z,6.4
2022-12-05T09:57:55.055Z,6.4
2022-12-05T10:00:21.232Z,6.4
2022-12-05T10:02:47.245Z,6.4
2022-12-05T10:05:13.327Z,6.4
2022-12-05T10:07:39.421Z,6.4
2022-12-05T10:10:05.532Z,6.3
2022-12-05T10:12:31.620Z,6.3
2022-12-05T10:14:57.704Z,6.3
2022-12-05T10:17:23.808Z,6.3
2022-12-05T10:19:49.903Z,6.3
2022-12-05T10:22:16.000Z,6.3
2022-12-05T10:24:42.105Z,6.3
2022-12-05T10:27:08.189Z,6.3
2022-12-05T10:29:33.350Z,6.3
2022-12-05T10:31:59.410Z,6.3
2022-12-05T10:34:25.500Z,6.3
2022-12-05T10:36:51.583Z,6.3
2022-12-05T10:39:17.691Z,6.4
2022-12-05T10:41:43.784Z,6.4
2022-12-05T10:44:09.881Z,6.4
2022-12-05T10:46:34.997Z,6.4
2022-12-05T10:49:00.100Z,6.5
2022-12-05T10:51:26.214Z,6.5
2022-12-05T10:53:52.296Z,6.5
2022-12-05T10:56:18.397Z,6.6
2022-12-05T10:58:44.506Z,6.6
2022-12-05T11:01:10.586Z,6.6
2022-12-05T11:03:36.719Z,6.7
2022-12-05T11:06:02.796Z,6.7
2022-12-05T11:08:28.884Z,6.8
2022-12-05T11:10:54.972Z,6.8
2022-12-05T11:13:21.075Z,6.9
2022-12-05T11:15:47.173Z,6.9
2022-12-05T11:18:13.263Z,7
2022-12-05T11:20:38.385Z,7.1
2022-12-05T11:23:04.468Z,7.2
2022-12-05T11:25:30.593Z,7.3
2022-12-05T11:27:56.671Z,7.4
2022-12-05T11:30:22.775Z,7.5
2022-12-05T11:32:48.860Z,7.6
2022-12-05T11:35:14.947Z,7.7
2022-12-05T11:37:40.063Z,7.8
2022-12-05T11:40:05.187Z,7.8
2022-12-05T11:42:31.293Z,7.9
2022-12-05T11:44:57.370Z,7.9
2022-12-05T11:47:23.477Z,8
2022-12-05T11:49:49.583Z,8
2022-12-05T11:52:15.657Z,8
2022-12-05T11:54:41.745Z,8
2022-12-05T11:57:07.853Z,8
2022-12-05T11:59:33.955Z,8
2022-12-05T12:02:00.043Z,8
2022-12-05T12:04:26.153Z,8
2022-12-05T12:06:52.241Z,8
2022-12-05T12:09:18.326Z,8
2022-12-05T12:11:44.417Z,8
2022-12-05T12:14:10.593Z,8
2022-12-05T12:16:36.621Z,8.1
2022-12-05T12:19:02.724Z,8.1
2022-12-05T12:21:28.819Z,8.1
2022-12-05T12:23:54.915Z,8.2
2022-12-05T12:26:21.005Z,8.2
2022-12-05T12:28:47.105Z,8.2
2022-12-05T12:31:13.228Z,8.2
2022-12-05T12:33:39.296Z,8.3
2022-12-05T12:36:05.386Z,8.3
2022-12-05T12:38:31.485Z,8.3
2022-12-05T12:40:57.580Z,8.4
2022-12-05T12:43:23.782Z,8.4
2022-12-05T12:45:49.817Z,8.4
2022-12-05T12:48:15.887Z,8.5
2022-12-05T12:50:41.977Z,8.5
2022-12-05T12:53:08.063Z,8.5
2022-12-05T12:55:34.156Z,8.5
2022-12-05T12:58:00.261Z,8.5
2022-12-05T13:00:25.395Z,8.5
2022-12-05T13:02:51.474Z,8.4
2022-12-05T13:05:17.599Z,8.4
2022-12-05T13:07:43.671Z,8.4
2022-12-05T13:10:09.789Z,8.3
2022-12-05T13:12:35.869Z,8.3
2022-12-05T13:15:01.975Z,8.3
2022-12-05T13:17:28.058Z,8.2
2022-12-05T13:19:54.156Z,8.2
2022-12-05T13:22:20.253Z,8.2
2022-12-05T13:24:46.337Z,8.2
2022-12-05T13:27:12.428Z,8.2
2022-12-05T13:29:37.551Z,8.2
2022-12-05T13:32:03.718Z,8.2
2022-12-05T13:34:29.728Z,8.1
2022-12-05T13:36:55.840Z,8.1
2022-12-05T13:39:21.927Z,8.1
2022-12-05T13:41:48.029Z,8
2022-12-05T13:44:14.121Z,8
2022-12-05T13:46:40.208Z,8
2022-12-05T13:49:06.302Z,8
2022-12-05T13:51:32.409Z,8
2022-12-05T13:53:58.508Z,7.9
2022-12-05T13:56:24.616Z,7.9
2022-12-05T13:58:50.701Z,7.9
2022-12-05T14:01:16.788Z,7.9
2022-12-05T14:03:42.890Z,7.9
2022-12-05T14:06:08.976Z,7.8
2022-12-05T14:08:35.177Z,7.8
2022-12-05T14:11:01.180Z,7.8
2022-12-05T14:13:27.270Z,7.7
2022-12-05T14:15:53.363Z,7.7
2022-12-05T14:18:19.469Z,7.7
2022-12-05T14:20:45.577Z,7.6
2022-12-05T14:23:11.669Z,7.6
2022-12-05T14:25:37.773Z,7.6
2022-12-05T14:28:03.844Z,7.5
2022-12-05T14:30:28.995Z,7.5
2022-12-05T14:32:55.079Z,7.5
2022-12-05T14:35:21.152Z,7.5
2022-12-05T14:37:47.226Z,7.5
2022-12-05T14:40:13.340Z,7.5
2022-12-05T14:42:39.450Z,7.4
2022-12-05T14:45:05.528Z,7.4
2022-12-05T14:47:31.630Z,7.4
2022-12-05T14:49:57.732Z,7.4
2022-12-05T14:52:23.830Z,7.4
2022-12-05T14:54:49.930Z,7.3
2022-12-05T14:57:16.007Z,7.3
2022-12-05T14:59:42.114Z,7.3
2022-12-05T15:02:07.221Z,7.3
2022-12-05T15:04:33.366Z,7.2
2022-12-05T15:06:59.399Z,7.2
2022-12-05T15:09:25.512Z,7.2
2022-12-05T15:11:51.614Z,7.2
2022-12-05T15:14:17.727Z,7.1
2022-12-05T15:16:43.797Z,7.1
2022-12-05T15:19:09.899Z,7.1
2022-12-05T15:21:35.974Z,7
2022-12-05T15:24:02.087Z,7
2022-12-05T15:26:28.185Z,7
2022-12-05T15:28:54.260Z,6.9
2022-12-05T15:31:20.368Z,6.9
2022-12-05T15:33:46.475Z,6.9
2022-12-05T15:36:12.562Z,6.8
2022-12-05T15:38:38.669Z,6.8
2022-12-05T15:41:04.763Z,6.7
2022-12-05T15:43:30.838Z,6.6
2022-12-05T15:45:56.939Z,6.6
2022-12-05T15:48:22.055Z,6.5
2022-12-05T15:50:48.221Z,6.4
2022-12-05T15:53:14.241Z,6.3
2022-12-05T15:55:40.344Z,6.3
2022-12-05T15:58:06.439Z,6.2
2022-12-05T16:00:32.549Z,6.1
2022-12-05T16:02:58.647Z,6
2022-12-05T16:05:24.720Z,6
2022-12-05T16:07:50.836Z,5.9
2022-12-05T16:10:16.919Z,5.9
2022-12-05T16:12:43.008Z,5.8
2022-12-05T16:15:09.122Z,5.8
2022-12-05T16:17:35.208Z,5.7
2022-12-05T16:20:00.325Z,5.7
2022-12-05T16:22:26.428Z,5.6
2022-12-05T16:24:52.523Z,5.6
2022-12-05T16:27:18.606Z,5.5
2022-12-05T16:29:44.718Z,5.5
2022-12-05T16:32:10.801Z,5.4
2022-12-05T16:34:36.948Z,5.4
2022-12-05T16:37:02.983Z,5.3
2022-12-05T16:39:29.090Z,5.3
2022-12-05T16:41:55.207Z,5.2
2022-12-05T16:44:21.294Z,5.1
2022-12-05T16:46:47.371Z,5.1
2022-12-05T16:49:13.467Z,5
2022-12-05T16:51:38.576Z,4.9
2022-12-05T16:54:04.681Z,4.9
2022-12-05T16:56:30.766Z,4.8
2022-12-05T16:58:56.895Z,4.8
2022-12-05T17:01:22.970Z,4.7
2022-12-05T17:03:49.098Z,4.7
2022-12-05T17:08:41.256Z,4.5
2022-12-05T17:11:07.350Z,4.5
2022-12-05T17:13:33.428Z,4.5
2022-12-05T17:15:59.539Z,4.4
2022-12-05T17:18:25.632Z,4.4
2022-12-05T17:20:51.722Z,4.4
2022-12-05T17:28:09.023Z,4.3
2022-12-05T17:30:34.141Z,4.3
2022-12-05T17:32:59.263Z,4.3
2022-12-05T17:35:24.383Z,4.3
2022-12-05T17:37:49.554Z,4.3
2022-12-05T17:40:14.623Z,4.3
2022-12-05T17:42:39.744Z,4.3
2022-12-05T17:45:05.837Z,4.3
2022-12-05T17:47:32.141Z,4.3
2022-12-05T17:49:58.176Z,4.3
2022-12-05T17:52:24.175Z,4.3
2022-12-05T17:54:50.204Z,4.4
2022-12-05T17:57:16.462Z,4.4
2022-12-05T17:59:42.558Z,4.4
2022-12-05T18:02:07.727Z,4.4
2022-12-05T18:04:33.775Z,4.4
2022-12-05T18:06:58.746Z,4.5
2022-12-05T18:09:23.980Z,4.5
2022-12-05T18:11:50.007Z,4.5
2022-12-05T18:14:16.125Z,4.5
2022-12-05T18:16:42.376Z,4.5
2022-12-05T18:19:08.380Z,4.5
2022-12-05T18:21:34.620Z,4.5
2022-12-05T18:24:00.643Z,4.5
2022-12-05T18:26:26.504Z,4.5
2022-12-05T18:28:52.762Z,4.5
2022-12-05T18:31:18.843Z,4.5
2022-12-05T18:33:44.994Z,4.5
2022-12-05T18:36:11.063Z,4.5
2022-12-05T18:38:37.022Z,4.6
2022-12-05T18:41:02.104Z,4.6
2022-12-05T18:43:28.233Z,4.6
2022-12-05T18:45:54.303Z,4.6
2022-12-05T18:48:20.525Z,4.6
2022-12-05T18:50:46.589Z,4.6
2022-12-05T18:53:12.583Z,4.5
2022-12-05T18:55:38.683Z,4.5
2022-12-05T18:58:03.977Z,4.5
2022-12-05T19:00:29.079Z,4.4
2022-12-05T19:02:54.045Z,4.4
2022-12-05T19:05:19.152Z,4.3
2022-12-05T19:07:44.273Z,4.3
2022-12-05T19:10:09.387Z,4.2
2022-12-05T19:12:34.522Z,4.2
2022-12-05T19:14:59.643Z,4.2
2022-12-05T19:17:25.717Z,4.1
2022-12-05T19:19:51.950Z,4.1
2022-12-05T19:22:17.968Z,4.1
2022-12-05T19:24:44.011Z,4.1
2022-12-05T19:27:10.102Z,4.1
2022-12-05T19:29:36.189Z,4.1
2022-12-05T19:32:02.291Z,4.1
2022-12-05T19:34:28.394Z,4.1
2022-12-05T19:36:54.490Z,4.1
2022-12-05T19:39:20.602Z,4.2
2022-12-05T19:41:46.686Z,4.2
2022-12-05T19:44:12.791Z,4.2
2022-12-05T19:46:37.880Z,4.3
2022-12-05T19:49:03.979Z,4.3
2022-12-05T19:51:30.095Z,4.3
2022-12-05T19:53:56.190Z,4.3
2022-12-05T19:56:22.369Z,4.4
2022-12-05T19:58:48.378Z,4.4
2022-12-05T20:01:14.479Z,4.4
2022-12-05T20:03:39.600Z,4.4
2022-12-05T20:06:04.709Z,4.5
2022-12-05T20:08:30.801Z,4.5
2022-12-05T20:10:56.902Z,4.5
2022-12-05T20:13:22.991Z,4.5
2022-12-05T20:15:49.090Z,4.5
2022-12-05T20:18:15.204Z,4.6
2022-12-05T20:20:41.272Z,4.6
2022-12-05T20:23:07.384Z,4.6
2022-12-05T20:25:33.464Z,4.6
2022-12-05T20:27:59.560Z,4.6
2022-12-05T20:30:25.663Z,4.6
2022-12-05T20:32:51.799Z,4.7
2022-12-05T20:35:17.843Z,4.7
2022-12-05T20:37:42.949Z,4.7
2022-12-05T20:40:09.059Z,4.7
2022-12-05T20:42:35.145Z,4.7
2022-12-05T20:47:27.348Z,4.7
2022-12-05T20:49:53.431Z,4.7
2022-12-05T20:52:19.546Z,4.8
2022-12-05T20:54:45.634Z,4.8
2022-12-05T20:57:10.755Z,4.8
2022-12-05T20:59:35.904Z,4.8
2022-12-05T21:02:00.989Z,4.8
2022-12-05T21:04:26.098Z,4.8
2022-12-05T21:06:52.296Z,4.8
2022-12-05T21:09:18.285Z,4.8
2022-12-05T21:11:44.395Z,4.7
2022-12-05T21:14:10.478Z,4.7
2022-12-05T21:16:36.576Z,4.7
2022-12-05T21:19:02.667Z,4.7
2022-12-05T21:21:28.770Z,4.7
2022-12-05T21:23:54.865Z,4.7
2022-12-05T21:26:20.958Z,4.7
2022-12-05T21:28:47.048Z,4.7
2022-12-05T21:31:13.162Z,4.7
2022-12-05T21:33:39.256Z,4.7
2022-12-05T21:38:30.475Z,4.7
2022-12-05T21:40:56.566Z,4.7
2022-12-05T21:43:22.662Z,4.7
2022-12-05T21:45:48.734Z,4.7
2022-12-05T21:48:14.854Z,4.7
2022-12-05T21:50:40.933Z,4.7
2022-12-05T21:53:07.023Z,4.7
2022-12-05T21:55:32.144Z,4.7
2022-12-05T21:57:57.268Z,4.7
2022-12-05T22:00:22.395Z,4.7
2022-12-05T22:02:47.507Z,4.7
2022-12-05T22:05:13.669Z,4.7
2022-12-05T22:07:39.685Z,4.7
2022-12-05T22:10:05.783Z,4.7
2022-12-05T22:12:31.891Z,4.7
2022-12-05T22:14:57.995Z,4.7
2022-12-05T22:17:24.080Z,4.7
2022-12-05T22:19:50.185Z,4.7
2022-12-05T22:22:16.287Z,4.7
2022-12-05T22:24:42.394Z,4.7
2022-12-05T22:27:08.469Z,4.7
2022-12-05T22:29:34.548Z,4.7
2022-12-05T22:32:00.651Z,4.7
2022-12-05T22:34:25.747Z,4.7
2022-12-05T22:36:51.859Z,4.7
2022-12-05T22:39:17.948Z,4.7
2022-12-05T22:41:44.051Z,4.7
2022-12-05T22:44:10.147Z,4.7
2022-12-05T22:46:36.246Z,4.6
2022-12-05T22:49:02.341Z,4.6
2022-12-05T22:51:27.460Z,4.6
2022-12-05T22:53:52.572Z,4.6
2022-12-05T22:56:17.682Z,4.6
2022-12-05T22:58:42.807Z,4.6
2022-12-05T23:01:08.895Z,4.6
2022-12-05T23:03:35.011Z,4.6
2022-12-05T23:06:01.135Z,4.6
2022-12-05T23:08:27.203Z,4.6
2022-12-05T23:10:53.288Z,4.5
2022-12-05T23:13:19.403Z,4.5
2022-12-05T23:15:45.492Z,4.5
2022-12-05T23:18:11.567Z,4.5
2022-12-05T23:20:37.677Z,4.5
2022-12-05T23:23:03.782Z,4.5
2022-12-05T23:27:55.949Z,4.4
2022-12-05T23:30:21.079Z,4.4
2022-12-05T23:32:47.156Z,4.4
2022-12-05T23:35:13.242Z,4.3
2022-12-05T23:37:39.365Z,4.3
2022-12-05T23:40:05.452Z,4.3
2022-12-05T23:42:31.556Z,4.2
2022-12-05T23:44:57.649Z,4.2
2022-12-05T23:47:23.743Z,4.2
2022-12-05T23:49:48.860Z,4.2
2022-12-05T23:52:13.997Z,4.1
2022-12-05T23:54:40.069Z,4.1
2022-12-05T23:57:06.168Z,4.1
2022-12-05T23:59:32.266Z,4
